우주천마 3077

유료웹소설 > 연재 > 무협, SF

유료 완결

녹색여우
작품등록일 :
2020.05.11 12:32
최근연재일 :
2024.04.07 23:56
연재수 :
349 회
조회수 :
3,951,387
추천수 :
152,250
글자수 :
2,143,888

작품소개

오랜 세월이 흘러 태산에 봉인된 천마가 눈을 떴을 때, 이미 인류는 방사능에 절여진 지구를 떠나 은하를 누비고 있었다.

*최신 5편은 대여권 사용 불가 N 대여권 5개 보유

구매 · 편당구매 100 G ( 정가 : 100원 / 판매가 : 100원 )
· 일괄구매 32,400 G ( 정가 : 32,400원 / 판매가 : 32,400원 ) 일괄구매

일괄 구매하기 현재 연재되어 있는 편을 일괄 구매합니다.
선택 구매, 대여 시 작품 할인 이벤트 적용이 되지 않습니다.
※이미 구매/대여한 편은 제외됩니다.

선택 구매하기 선택 구매, 대여 시 작품 할인 이벤트 적용이 되지 않습니다. ※이미 구매/대여한 편은 제외됩니다.

일괄 대여하기
현재 연재되어 있는 편을 일괄 대여합니다.
선택 구매, 대여 시 작품 할인 이벤트 적용이 되지 않습니다.
※이미 구매/대여한 편은 제외됩니다.

선택 대여하기
선택 구매, 대여 시 작품 할인 이벤트 적용이 되지 않습니다. ※이미 구매/대여한 편은 제외됩니다.

결과

구매 예정 금액

0G
( 0원 )

0
보유 골드

0골드

구매 후 잔액

0G

*보유 골드가 부족합니다.

  • 꼭 확인해 주세요.
    • - 구매하신 작품은 유료약관 제16조 [사용기간 등]에 의거하여 서비스가 중단될 수 있습니다.
    • - 콘텐츠를 구매/대여 후 열람한 시점부터 취소가 불가능하며, 열람하지 않은 콘텐츠는 구매/
        대여일로부터 7일 이내 취소 신청이 가능합니다.
    • - 단, 대여의 경우 대여기간이 만료되면 취소가 불가능합니다.
    • - 이벤트 행사가 진행중인 콘텐츠를 구매/대여한 경우 각 이벤트 조건에 따라 취소가 불가능할
        수 있습니다.
    • - 콘텐츠 제공자의 의사에 따라 판매가가 변경될 수 있으며, 콘텐츠의 가격변경을 이유로 한
        구매취소는 불가능합니다.
  • 구매 취소 안내
    • - 일회성 콘텐츠이므로 구매/대여 후 열람하신 시점부터 구매/대여 취소가 불가능합니다.
    • - 단, 사용하지 않은 구매/대여 편은 구매일로부터 7일 이내 신청 시 취소가 가능합니다.
    • - 일괄 혹은 묶음 구매/대여를 한 경우, 한 편이라도 열람 시 나머지 편 또한 취소가 불가능합니다.
  • 대여 안내
    • - 대여 기간 : 대여 시부터 편당 1일, 최대 90편 이상 90일

내용

닫기

우주천마 3077 연재란
제목날짜 구매 추천 글자수
공지 일러스트 <만화검존 용적산> +4 24.01.02 1,959 0 -
공지 일러스트 <낭호교 삼자매> +2 23.11.17 1,990 0 -
공지 일러스트 <뇌신유녀 라이디 직스> + <벽검성 남궁수련> +5 23.09.18 2,906 0 -
공지 일러스트 <벽력자 한천향> + <유진 샤르마> +2 23.09.18 2,152 0 -
공지 연재 재개 공지 +27 23.08.25 2,008 0 -
공지 일러스트 <팔척투귀 엘레나 김> + <부월흑표 김성범> +4 23.05.05 3,162 0 -
공지 일러스트 <적랑대> 23.03.31 2,520 0 -
공지 일러스트 <순자> 2차 일러스트 + <로버트> +2 23.03.07 3,199 0 -
공지 일러스트 <철시귀옹 리첼 아카몬드> +1 22.12.31 3,419 0 -
공지 일러스트 <세령> 2차 일러스트 +2 22.12.31 3,680 0 -
공지 일러스트 <서천검후 김연화> +4 22.12.31 4,214 0 -
공지 자유연재 전환 공지 (2022.11.08) +42 22.11.08 3,677 0 -
공지 일러스트 <검마(劍魔)> 22.10.16 4,892 0 -
공지 일러스트 <존 로갈 / 자칼&캐슬> +13 22.09.24 4,110 0 -
공지 우주천마 일러스트 (2022.09.04 갱신) +46 21.12.07 13,657 0 -
349 FREE 본편 완결 후기 +45 24.04.07 2,921 69 2쪽
348 100 G **. 타천불타(墮天佛陀) - Fallen Budda +35 24.04.07 1,004 99 12쪽
347 100 G **. 독각열반(獨覺涅槃) - Nirvana +18 24.04.07 935 79 27쪽
346 100 G 50. 최종무곡 Final Dance (7) +12 24.04.06 903 68 21쪽
345 100 G 50. 최종무곡 Final Dance (6) +14 24.04.05 873 67 15쪽
344 100 G 50. 최종무곡 Final Dance (5) +4 24.04.05 858 56 13쪽
343 100 G 50. 최종무곡 Final Dance (4) +8 24.04.05 874 58 16쪽
342 100 G 50. 최종무곡 Final Dance (3) +4 24.04.05 885 59 16쪽
341 100 G 50. 최종무곡 Final Dance (2) +10 24.03.16 940 66 12쪽
340 100 G 50. 최종무곡 Final Dance (1) +11 24.03.12 948 68 12쪽
339 100 G 49. 격멸예고 Death Match Count (12) +13 24.02.27 969 70 12쪽
338 100 G 49. 격멸예고 Death Match Count (11) +7 24.02.27 960 65 12쪽
337 100 G 49. 격멸예고 Death Match Count (10) +12 24.02.06 999 79 13쪽
336 100 G 49. 격멸예고 Death Match Count (9) +23 24.01.16 1,032 79 15쪽
335 100 G 49. 격멸예고 Death Match Count (8) +6 24.01.16 1,020 67 11쪽
334 100 G 49. 격멸예고 Death Match Count (7) +18 24.01.01 1,043 78 20쪽
333 100 G 49. 격멸예고 Death Match Count (6) +12 23.12.24 1,058 78 16쪽
332 100 G 49. 격멸예고 Death Match Count (5) +18 23.12.11 1,080 85 14쪽
331 100 G 49. 격멸예고 Death Match Count (4) +13 23.11.30 1,098 82 13쪽
330 100 G 49. 격멸예고 Death Match Count (3) +22 23.11.17 1,118 80 18쪽
329 100 G 49. 격멸예고 Death Match Count (2) +21 23.10.30 1,133 91 15쪽
328 100 G 49. 격멸예고 Death Match Count (1) +22 23.10.16 1,139 83 12쪽
327 100 G 48. 생존논리 Survivor Excuses (9) +17 23.10.02 1,144 79 13쪽
326 100 G 48. 생존논리 Survivor Excuses (8) +10 23.09.25 1,135 78 12쪽
325 100 G 48. 생존논리 Survivor Excuses (7) +16 23.09.18 1,127 86 14쪽
324 100 G 48. 생존논리 Survivor Excuses (6) +11 23.09.10 1,144 80 12쪽
323 100 G 48. 생존논리 Survivor Excuses (5) (삽화) +23 23.09.01 1,170 73 16쪽
322 100 G 48. 생존논리 Survivor Excuses (4) +37 23.06.05 1,247 99 13쪽
321 100 G 48. 생존논리 Survivor Excuses (3) +27 23.05.05 1,313 100 15쪽
320 100 G 48. 생존논리 Survivor Excuses (2) +16 23.03.31 1,372 106 12쪽
319 100 G 48. 생존논리 Survivor Excuses (1) +14 23.03.14 1,444 102 12쪽
318 100 G 47. 자문의심 Self Questioning (6) +28 23.03.06 1,461 135 11쪽
317 100 G 47. 자문의심 Self Questioning (5) +25 23.01.16 1,552 126 13쪽
316 100 G 47. 자문의심 Self Questioning (4) +19 22.12.31 1,616 114 14쪽
315 100 G 47. 자문의심 Self Questioning (3) +23 22.12.16 1,702 134 12쪽
314 100 G 47. 자문의심 Self Questioning (2) +26 22.11.25 1,799 139 12쪽
313 100 G 47. 자문의심 Self Questioning (1) +54 22.11.08 1,901 150 11쪽
312 100 G 46. 검마초월 Transcendence of Bladewalker (8) +45 22.11.04 1,908 178 13쪽
311 100 G 46. 검마초월 Transcendence of Bladewalker (7) +39 22.11.01 1,868 174 12쪽
310 100 G 46. 검마초월 Transcendence of Bladewalker (6) +20 22.10.28 1,858 157 12쪽
309 100 G 46. 검마초월 Transcendence of Bladewalker (5) +18 22.10.26 1,867 142 11쪽
308 100 G 46. 검마초월 Transcendence of Bladewalker (4) +36 22.10.18 1,885 153 14쪽
307 100 G 46. 검마초월 Transcendence of Bladewalker (3) (삽화) +35 22.10.16 1,889 155 13쪽
306 100 G 46. 검마초월 Transcendence of Bladewalker (2) +28 22.10.12 1,902 151 14쪽
305 100 G 46. 검마초월 Transcendence of Bladewalker (1) +13 22.10.10 1,930 135 13쪽
304 100 G 45. 은원청산 Payback (7) +26 22.10.06 1,906 147 14쪽
303 100 G 45. 은원청산 Payback (6) +20 22.10.05 1,874 154 14쪽
302 100 G 45. 은원청산 Payback (5) +14 22.10.03 1,880 142 13쪽
301 100 G 45. 은원청산 Payback (4) +23 22.09.29 1,893 152 16쪽
300 100 G 45. 은원청산 Payback (3) +14 22.09.28 1,884 139 13쪽
299 100 G 45. 은원청산 Payback (2) +9 22.09.27 1,916 138 12쪽
298 100 G 45. 은원청산 Payback (1) +22 22.09.24 1,952 143 13쪽
297 100 G 44. 혈멸규약 Bloodcult Protocol (7) +12 22.09.21 1,962 138 13쪽
296 100 G 44. 혈멸규약 Bloodcult Protocol (6) +10 22.09.20 1,959 149 13쪽
295 100 G 44. 혈멸규약 Bloodcult Protocol (5) +32 22.09.16 1,971 150 12쪽
294 100 G 44. 혈멸규약 Bloodcult Protocol (4) +22 22.09.14 1,974 158 14쪽
293 100 G 44. 혈멸규약 Bloodcult Protocol (3) +15 22.09.13 1,981 113 14쪽
292 100 G 44. 혈멸규약 Bloodcult Protocol (2) +12 22.09.09 2,011 143 15쪽
291 100 G 44. 혈멸규약 Bloodcult Protocol (1) +11 22.09.08 2,032 140 13쪽
290 100 G 43. 후계전쟁 Succession Struggle (8) +16 22.09.05 2,086 138 13쪽
289 100 G 43. 후계전쟁 Succession Struggle (7) +23 22.09.02 2,106 162 12쪽
288 100 G 43. 후계전쟁 Succession Struggle (6) +12 22.09.01 2,141 135 15쪽
287 100 G 43. 후계전쟁 Succession Struggle (5) +15 22.08.31 2,157 146 12쪽
286 100 G 43. 후계전쟁 Succession Struggle (4) +23 22.08.29 2,198 146 14쪽
285 100 G 43. 후계전쟁 Succession Struggle (3) +21 22.08.24 2,204 160 12쪽
284 100 G 43. 후계전쟁 Succession Struggle (2) +11 22.08.23 2,230 148 13쪽
283 100 G 43. 후계전쟁 Succession Struggle (1) +10 22.08.22 2,286 158 13쪽
282 100 G 42. 죄마침습 Mara of Guilt (5) +15 22.08.22 2,233 161 18쪽
281 100 G 42. 죄마침습 Mara of Guilt (4) +31 22.08.18 2,243 186 14쪽
280 100 G 42. 죄마침습 Mara of Guilt (3) +24 22.08.17 2,234 163 13쪽
279 100 G 42. 죄마침습 Mara of Guilt (2) +22 22.08.16 2,251 172 13쪽
278 100 G 42. 죄마침습 Mara of Guilt (1) +19 22.08.15 2,290 160 13쪽
277 100 G 41. 강철군주 Lord of Iron (8) +33 22.07.30 2,363 194 15쪽
276 100 G 41. 강철군주 Lord of Iron (7) +46 22.07.27 2,363 197 15쪽
275 100 G 41. 강철군주 Lord of Iron (6) +39 22.07.26 2,337 193 12쪽
274 100 G 41. 강철군주 Lord of Iron (5) +27 22.07.25 2,329 183 14쪽
273 100 G 41. 강철군주 Lord of Iron (4) +20 22.07.21 2,352 151 13쪽
272 100 G 41. 강철군주 Lord of Iron (3) +17 22.07.19 2,365 169 14쪽
271 100 G 41. 강철군주 Lord of Iron (2) +9 22.07.19 2,388 168 12쪽
270 100 G 41. 강철군주 Lord of Iron (1) +24 22.07.15 2,431 172 13쪽
269 100 G 40. 사면초가 No Ally (5) +21 22.07.14 2,443 171 13쪽
268 100 G 40. 사면초가 No Ally (4) +16 22.07.12 2,446 176 12쪽
267 100 G 40. 사면초가 No Ally (3) +20 22.07.12 2,469 189 11쪽
266 100 G 40. 사면초가 No Ally (2) +42 22.07.06 2,516 176 13쪽
265 100 G 40. 사면초가 No Ally (1) +34 22.07.05 2,549 185 12쪽
264 100 G 39. 대죄유혹 Guilty Temptation (5) +31 22.07.04 2,570 184 13쪽
263 100 G 39. 대죄유혹 Guilty Temptation (4) +29 22.07.02 2,569 199 12쪽
262 100 G 39. 대죄유혹 Guilty Temptation (3) +30 22.07.01 2,569 196 12쪽
261 100 G 39. 대죄유혹 Guilty Temptation (2) +24 22.06.30 2,579 187 12쪽
260 100 G 39. 대죄유혹 Guilty Temptation (1) +38 22.06.29 2,590 189 11쪽
259 100 G 38. 상호관측 First Contact (9) +21 22.06.27 2,589 187 13쪽
258 100 G 38. 상호관측 First Contact (8) +25 22.06.24 2,597 204 12쪽
257 100 G 38. 상호관측 First Contact (7) +46 22.06.22 2,605 194 12쪽
256 100 G 38. 상호관측 First Contact (6) +21 22.06.20 2,594 196 13쪽
255 100 G 38. 상호관측 First Contact (5) +24 22.06.17 2,625 201 13쪽
254 100 G 38. 상호관측 First Contact (4) +48 22.06.08 2,660 207 16쪽
253 100 G 38. 상호관측 First Contact (3) +50 22.06.06 2,651 246 14쪽
252 100 G 38. 상호관측 First Contact (2) +21 22.06.04 2,648 192 12쪽
251 100 G 38. 상호관측 First Contact (1) +26 22.06.02 2,657 215 13쪽
250 100 G 37. 궁극무인 Ultimate Artificial Warrior (10) +17 22.06.01 2,733 192 15쪽
249 100 G 37. 궁극무인 Ultimate Artificial Warrior (9) +29 22.05.31 2,722 211 12쪽
248 100 G 37. 궁극무인 Ultimate Artificial Warrior (8) +20 22.05.30 2,724 203 13쪽
247 100 G 37. 궁극무인 Ultimate Artificial Warrior (7) +38 22.05.25 2,736 213 13쪽
246 100 G 37. 궁극무인 Ultimate Artificial Warrior (6) (삽화) +57 22.05.24 2,732 220 12쪽
245 100 G 37. 궁극무인 Ultimate Artificial Warrior (5) +7 22.05.24 2,704 179 14쪽
244 100 G 37. 궁극무인 Ultimate Artificial Warrior (4) +10 22.05.24 2,693 175 13쪽
243 100 G 37. 궁극무인 Ultimate Artificial Warrior (3) +36 22.05.21 2,719 203 16쪽
242 100 G 37. 궁극무인 Ultimate Artificial Warrior (2) +45 22.05.19 2,734 205 16쪽
241 100 G 37. 궁극무인 Ultimate Artificial Warrior (1) +28 22.05.18 2,749 216 15쪽
240 100 G 36. 납자응징 Kidnapper Judgment (8) +39 22.05.17 2,703 195 13쪽
239 100 G 36. 납자응징 Kidnapper Judgment (7) +22 22.05.16 2,699 209 13쪽
238 100 G 36. 납자응징 Kidnapper Judgment (6) +24 22.05.13 2,711 225 13쪽
237 100 G 36. 납자응징 Kidnapper Judgment (5) +23 22.05.12 2,702 215 12쪽
236 100 G 36. 납자응징 Kidnapper Judgment (4) +23 22.05.11 2,713 203 12쪽
235 100 G 36. 납자응징 Kidnapper Judgment (3) +35 22.05.11 2,696 214 12쪽
234 100 G 36. 납자응징 Kidnapper Judgment (2) +44 22.05.09 2,692 216 15쪽
233 100 G 36. 납자응징 Kidnapper Judgment (1) +29 22.05.06 2,703 208 16쪽
232 100 G 35. 야수강호 Wolfy&Foxy&Sharky (9) +29 22.05.04 2,698 194 13쪽
231 100 G 35. 야수강호 Wolfy&Foxy&Sharky (8) +20 22.05.03 2,697 203 14쪽
230 100 G 35. 야수강호 Wolfy&Foxy&Sharky (7) +24 22.05.02 2,691 218 13쪽
229 100 G 35. 야수강호 Wolfy&Foxy&Sharky (6) +20 22.04.29 2,712 213 13쪽
228 100 G 35. 야수강호 Wolfy&Foxy&Sharky (5) +26 22.04.28 2,717 194 14쪽
227 100 G 35. 야수강호 Wolfy&Foxy&Sharky (4) +27 22.04.27 2,725 192 13쪽
226 100 G 35. 야수강호 Wolfy&Foxy&Sharky (3) +34 22.04.26 2,731 205 12쪽
225 100 G 35. 야수강호 Wolfy&Foxy&Sharky (2) (삽화) +44 22.04.22 2,756 200 15쪽
224 100 G 35. 야수강호 Wolfy&Foxy&Sharky (1) +25 22.04.21 2,785 209 14쪽
223 100 G 34. 무영귀탑 Phantomic Shadowless Colony (8) +25 22.04.20 2,784 196 12쪽
222 100 G 34. 무영귀탑 Phantomic Shadowless Colony (7) +16 22.04.19 2,779 199 12쪽
221 100 G 34. 무영귀탑 Phantomic Shadowless Colony (6) +31 22.04.18 2,779 209 12쪽
220 100 G 34. 무영귀탑 Phantomic Shadowless Colony (5) +25 22.04.15 2,784 196 13쪽
219 100 G 34. 무영귀탑 Phantomic Shadowless Colony (4) +26 22.04.14 2,780 214 16쪽
218 100 G 34. 무영귀탑 Phantomic Shadowless Colony (3) +38 22.04.13 2,783 218 14쪽
217 100 G 34. 무영귀탑 Phantomic Shadowless Colony (2) +25 22.04.12 2,802 196 14쪽
216 100 G 34. 무영귀탑 Phantomic Shadowless Colony (1) +33 22.04.11 2,810 202 13쪽
215 100 G 33. 대적준동 Omen of Blood Cult (5) +17 22.04.08 2,839 216 17쪽
214 100 G 33. 대적준동 Omen of Blood Cult (4) +21 22.04.06 2,828 196 15쪽
213 100 G 33. 대적준동 Omen of Blood Cult (3) +25 22.04.05 2,851 192 14쪽
212 100 G 33. 대적준동 Omen of Blood Cult (2) +13 22.04.04 2,883 186 12쪽
211 100 G 33. 대적준동 Omen of Blood Cult (1) +24 22.04.01 2,919 204 12쪽
210 100 G 32. 창귀타호 Possessed Tiger (8) +23 22.03.31 2,913 222 14쪽
209 100 G 32. 창귀타호 Possessed Tiger (7) +39 22.03.30 2,906 216 12쪽
208 100 G 32. 창귀타호 Possessed Tiger (6) +35 22.03.29 2,896 230 12쪽
207 100 G 32. 창귀타호 Possessed Tiger (5) +28 22.03.28 2,886 202 13쪽
206 100 G 32. 창귀타호 Possessed Tiger (4) +29 22.03.25 2,887 216 12쪽
205 100 G 32. 창귀타호 Possessed Tiger (3) +26 22.03.24 2,885 193 12쪽
204 100 G 32. 창귀타호 Possessed Tiger (2) +20 22.03.23 2,891 211 13쪽
203 100 G 32. 창귀타호 Possessed Tiger (1) +19 22.03.22 2,896 206 13쪽
202 100 G 31. 착호검객 Samurai the Tigerhunter (6) +35 22.03.18 2,941 223 14쪽
201 100 G 31. 착호검객 Samurai the Tigerhunter (5) +37 22.03.17 2,921 234 11쪽
200 100 G 31. 착호검객 Samurai the Tigerhunter (4) +36 22.03.17 2,905 219 11쪽
199 100 G 31. 착호검객 Samurai the Tigerhunter (3) +41 22.03.16 2,907 224 14쪽
198 100 G 31. 착호검객 Samurai the Tigerhunter (2) +35 22.03.15 2,916 237 14쪽
197 100 G 31. 착호검객 Samurai the Tigerhunter (1) +27 22.03.14 2,946 195 12쪽
196 100 G 30. 선전포고 Declaration of Vengeance (5) +41 22.03.11 2,958 228 13쪽
195 100 G 30. 선전포고 Declaration of Vengeance (4) +31 22.03.10 2,945 218 16쪽
194 100 G 30. 선전포고 Declaration of Vengeance (3) +16 22.03.09 2,953 212 13쪽
193 100 G 30. 선전포고 Declaration of Vengeance (2) +26 22.03.07 2,973 215 17쪽
192 100 G 30. 선전포고 Declaration of Vengeance (1) +27 22.03.04 3,045 198 13쪽
191 100 G 29. 마후합작 Ultimate Group Project (8) +16 22.03.03 3,053 214 13쪽
190 100 G 29. 마후합작 Ultimate Group Project (7) +21 22.03.02 3,046 204 13쪽
189 100 G 29. 마후합작 Ultimate Group Project (6) +31 22.03.01 3,058 238 13쪽
188 100 G 29. 마후합작 Ultimate Group Project (5) +43 22.02.28 3,056 249 12쪽
187 100 G 29. 마후합작 Ultimate Group Project (4) +23 22.02.25 3,081 210 14쪽
186 100 G 29. 마후합작 Ultimate Group Project (3) (삽화) +30 22.02.24 3,103 213 12쪽
185 100 G 29. 마후합작 Ultimate Group Project (2) +30 22.02.22 3,118 224 13쪽
184 100 G 29. 마후합작 Ultimate Group Project (1) +15 22.02.21 3,156 204 12쪽
183 100 G 28. 검귀난입 Uninvited Challenger (6) +33 22.02.18 3,163 214 14쪽
182 100 G 28. 검귀난입 Uninvited Challenger (5) +26 22.02.18 3,152 246 13쪽
181 100 G 28. 검귀난입 Uninvited Challenger (4) +32 22.02.16 3,147 225 13쪽
180 100 G 28. 검귀난입 Uninvited Challenger (3) +34 22.02.14 3,145 231 11쪽
179 100 G 28. 검귀난입 Uninvited Challenger (2) +16 22.02.11 3,121 216 14쪽
178 100 G 28. 검귀난입 Uninvited Challenger (1) +19 22.02.10 3,126 200 12쪽
177 100 G 27. 초감이계 Beyond the Sense (8) +26 22.02.09 3,150 230 15쪽
176 100 G 27. 초감이계 Beyond the Sense (7) +34 22.02.08 3,141 207 11쪽
175 100 G 27. 초감이계 Beyond the Sense (6) +35 22.02.07 3,171 218 13쪽
174 100 G 27. 초감이계 Beyond the Sense (5) +41 22.02.03 3,209 217 14쪽
173 100 G 27. 초감이계 Beyond the Sense (4) +28 22.02.01 3,228 212 12쪽
172 100 G 27. 초감이계 Beyond the Sense (3) +20 22.01.31 3,239 208 14쪽
171 100 G 27. 초감이계 Beyond the Sense (2) +18 22.01.28 3,269 210 12쪽
170 100 G 27. 초감이계 Beyond the Sense (1) +21 22.01.28 3,299 220 13쪽
169 100 G 26. 대기시숙 Super Rookie Complete (6) +20 22.01.26 3,286 241 13쪽
168 100 G 26. 대기시숙 Super Rookie Complete (5) +29 22.01.25 3,290 231 14쪽
167 100 G 26. 대기시숙 Super Rookie Complete (4) +25 22.01.24 3,317 213 12쪽
166 100 G 26. 대기시숙 Super Rookie Complete (3) +22 22.01.21 3,380 222 12쪽
165 100 G 26. 대기시숙 Super Rookie Complete (2) +19 22.01.20 3,396 218 13쪽

구매자 통계

신고 사유를 선택하세요.
장난 또는 허위 신고시 불이익을 받을 수 있으며,
작품 신고의 경우 저작권자에게 익명으로 신고 내용이
전달될 수 있습니다.

신고